Malcolm, NE

5:58 AM CST on January 31, 2015 (GMT -0600)
Lincoln Municipal | Change Station
CLOSE
Current Station
Airport
Location: Lincoln,
Elevation: 1188 ft
Nearby Weather Stations
Active Advisory: Winter Weather Advisory

Elev 1188 ft 40.85 °N, 96.76 °W | Updated 4 minutes ago

Overcast
Overcast
37 °F
Feels Like 29 °F
N
12
Wind Variable Wind from SSW

Today
High -- | Low -- °F
--% Chance of Precip.
Yesterday
High -- | Low -- °F
Precip. -- in
7:39 AM 5:43 PM
Waxing Gibbous, 89% visible
Pressure 30.20 in
Visibility 9.0 miles
Clouds Mostly Cloudy 1000 ft
Overcast 3000 ft
Windchill 29 °F
Dew Point 34 °F
Humidity 89%
Rainfall 0.00 in
Snow Depth Not available.
UV 0 out of 12
Pollen .10 out of 12
Air Quality Not available.
Flu Activity Not available.
METAR KLNK 311154Z 20010KT 9SM -RA BKN010 OVC030 03/01 A3017 RMK AO2 RAB23 SLP227 P0000 60000 T00280011 10039 20028 56012

More Conditions Fewer Conditions

Pressure 30.20 in
Visibility 9.0 miles
Clouds Mostly Cloudy 1000 ft
Overcast 3000 ft
Windchill 29 °F
Dew Point 34 °F
Humidity 89%
Rainfall 0.00 in
Snow Depth Not available.
UV 0 out of 12
Pollen .10 out of 12
Air Quality Not available.
Flu Activity Not available.
METAR KLNK 311154Z 20010KT 9SM -RA BKN010 OVC030 03/01 A3017 RMK AO2 RAB23 SLP227 P0000 60000 T00280011 10039 20028 56012

More Conditions Fewer Conditions

10-Day Weather Forecast

Almanac

Astronomy

Jan. 31, 2015 Rise Set
Actual Time
Civil Twilight
Nautical Twilight
Astronomical Twilight
Moon
Length of Visible Light
Length of Day
Tomorrow will be .
, % of the Moon is Illuminated

Today's Extremes

State Highs State Lows

Community

WunderPhotos

Upload Photos

1,792,032 photos uploaded!

WunderBlogs® & News

Nearby

Air Quality

  Air Quality AQ Index Pollutant
Not available.

Snow Depth

Station Depth Elevation

Earthquake Activity

City Distance Mag. Time & Date
Minimum magnitude displayed is 2.5.

Coastal Water Temperatures

Place Temperature

Nearby Weather Stations